KDTW/DTW METAR and TAF weather

Enter ICAO airport designator
Station Type Date Time Source
KDTW METAR 2018/07/19 06:53 UTC NOAA

KDTW 190653Z 01003KT 10SM FEW250 19/13 A3008 RMK AO2 SLP181 T01890133


Station Type Date Time Source
KDTW Decoded METAR 2018/07/19 06:53 UTC NOAA

DETROIT METROPOLITAN, MI, United States (KDTW) 42-14N 83-20W 195M
Jul 19, 2018 - 02:53 AM EDT / 2018.07.19 0653 UTC
Wind: from the N (010 degrees) at 3 MPH (3 KT):0
Visibility: 10 mile(s):0
Sky conditions: mostly clear
Temperature: 66.0 F (18.9 C)
Dew Point: 55.9 F (13.3 C)
Relative Humidity: 69%
Pressure (altimeter): 30.08 in. Hg (1018 hPa)
ob: KDTW 190653Z 01003KT 10SM FEW250 19/13 A3008 RMK AO2 SLP181 T01890133
cycle: 7

Station Type Date Time Source
KDTW TAF 2018/07/19 06:22 UTC NOAA

TAF KDTW 190520Z 1906/2012 VRB03KT P6SM SKC
FM191300 12006KT P6SM SCT035
FM191700 14006KT P6SM SCT050
FM200200 09005KT P6SM BKN250


Example: see airport list